createdAt,value
2022-12-11T00:01:24.562Z,78375.59
2022-12-11T00:03:51.162Z,78343.78
2022-12-11T00:06:20.167Z,78349.75
2022-12-11T00:08:46.804Z,78363.66
2022-12-11T00:11:15.121Z,78353.72
2022-12-11T00:13:42.565Z,78365.66
2022-12-11T00:16:09.858Z,78353.72
2022-12-11T00:18:36.890Z,78359.69
2022-12-11T00:21:09.257Z,78367.63
2022-12-11T00:23:36.313Z,78405.41
2022-12-11T00:26:06.925Z,78373.59
2022-12-11T00:28:34.172Z,78353.72
2022-12-11T00:31:07.632Z,78397.47
2022-12-11T00:33:34.406Z,78391.50
2022-12-11T00:36:00.935Z,78405.41
2022-12-11T00:38:27.619Z,78379.56
2022-12-11T00:40:58.363Z,78351.72
2022-12-11T00:43:24.731Z,78355.72
2022-12-11T00:45:51.124Z,78339.81
2022-12-11T00:48:17.564Z,78361.66
2022-12-11T00:50:43.917Z,78375.59
2022-12-11T00:53:10.316Z,78371.63
2022-12-11T00:55:38.443Z,78367.63
2022-12-11T00:58:05.253Z,78339.81
2022-12-11T01:00:31.825Z,78321.91
2022-12-11T01:02:58.382Z,78371.63
2022-12-11T01:05:24.830Z,78361.66
2022-12-11T01:07:51.292Z,78345.75
2022-12-11T01:10:23.983Z,78329.84
2022-12-11T01:12:51.381Z,78347.75
2022-12-11T01:15:18.993Z,78359.69
2022-12-11T01:17:45.656Z,78369.63
2022-12-11T01:20:12.724Z,78355.72
2022-12-11T01:22:39.629Z,78327.88
2022-12-11T01:25:06.286Z,78339.81
2022-12-11T01:27:32.751Z,78353.72
2022-12-11T01:29:59.096Z,78339.81
2022-12-11T01:32:25.484Z,78353.72
2022-12-11T01:34:51.909Z,78363.66
2022-12-11T01:37:18.289Z,78335.81
2022-12-11T01:39:44.692Z,78337.81
2022-12-11T01:42:17.465Z,78355.72
2022-12-11T01:44:43.780Z,78347.75
2022-12-11T01:47:10.705Z,78347.75
2022-12-11T01:49:39.437Z,78363.66
2022-12-11T01:52:10.078Z,78353.72
2022-12-11T01:54:37.064Z,78357.69
2022-12-11T01:57:07.067Z,78341.78
2022-12-11T01:59:36.472Z,78335.81
2022-12-11T02:02:15.133Z,78345.75
2022-12-11T02:04:43.171Z,78363.66
2022-12-11T02:07:09.757Z,78339.81
2022-12-11T02:09:40.103Z,78327.88
2022-12-11T02:12:34.458Z,78341.78
2022-12-11T02:15:11.184Z,78327.88
2022-12-11T02:17:43.992Z,78367.63
2022-12-11T02:20:17.825Z,78371.63
2022-12-11T02:22:53.174Z,78349.75
2022-12-11T02:25:32.880Z,78339.81
2022-12-11T02:28:31.814Z,78371.63
2022-12-11T02:31:26.073Z,78379.56
2022-12-11T02:34:00.925Z,78367.63
2022-12-11T02:36:31.533Z,78341.78
2022-12-11T02:39:01.040Z,78331.84
2022-12-11T02:41:29.193Z,78337.81
2022-12-11T02:43:57.677Z,78325.88
2022-12-11T02:46:24.920Z,78329.84
2022-12-11T02:48:53.056Z,78359.69
2022-12-11T02:51:23.917Z,78331.84
2022-12-11T02:53:55.398Z,78298.06
2022-12-11T02:56:31.067Z,78298.06
2022-12-11T02:59:07.178Z,78306.00
2022-12-11T03:01:33.799Z,78347.75
2022-12-11T03:04:00.282Z,78375.59
2022-12-11T03:06:34.450Z,78367.63
2022-12-11T03:09:00.932Z,78365.66
2022-12-11T03:11:27.427Z,78375.59
2022-12-11T03:13:54.380Z,78377.56
2022-12-11T03:16:36.103Z,78367.63
2022-12-11T03:19:27.725Z,78375.59
2022-12-11T03:22:00.553Z,78393.47
2022-12-11T03:24:34.799Z,78395.47
2022-12-11T03:27:36.073Z,78383.53
2022-12-11T03:30:10.480Z,78405.41
2022-12-11T03:32:43.155Z,78375.59
2022-12-11T03:35:18.700Z,78373.59
2022-12-11T03:37:53.415Z,78393.47
2022-12-11T03:40:21.728Z,78403.44
2022-12-11T03:42:52.327Z,78405.41
2022-12-11T03:45:22.041Z,78405.41
2022-12-11T03:47:50.377Z,78403.44
2022-12-11T03:50:19.051Z,78387.53
2022-12-11T03:52:47.780Z,78387.53
2022-12-11T03:55:17.427Z,78383.53
2022-12-11T03:57:44.208Z,78385.53
2022-12-11T04:00:15.319Z,78403.44
2022-12-11T04:02:42.513Z,78389.50
2022-12-11T04:05:09.865Z,78417.34
2022-12-11T04:07:36.535Z,78397.47
2022-12-11T04:10:04.825Z,78407.41
2022-12-11T04:12:31.256Z,78409.38
2022-12-11T04:15:03.695Z,78413.38
2022-12-11T04:49:46.973Z,78423.31
2022-12-11T04:52:13.495Z,78427.28
2022-12-11T04:54:40.028Z,78415.34
2022-12-11T04:57:06.433Z,78425.28
2022-12-11T04:59:33.242Z,78423.31
2022-12-11T05:01:59.866Z,78411.38
2022-12-11T05:04:26.391Z,78405.41
2022-12-11T05:06:52.751Z,78403.44
2022-12-11T05:09:19.172Z,78387.53
2022-12-11T05:11:45.681Z,78379.56
2022-12-11T05:14:12.200Z,78383.53
2022-12-11T05:16:38.597Z,78383.53
2022-12-11T05:19:04.971Z,78383.53
2022-12-11T05:21:34.980Z,78379.56
2022-12-11T05:24:01.853Z,78357.69
2022-12-11T05:26:28.451Z,78379.56
2022-12-11T05:28:55.481Z,78379.56
2022-12-11T05:31:25.419Z,78373.59
2022-12-11T05:33:53.009Z,78391.50
2022-12-11T05:36:25.469Z,78383.53
2022-12-11T05:38:52.238Z,78393.47
2022-12-11T05:41:22.048Z,78405.41
2022-12-11T05:43:48.744Z,78383.53
2022-12-11T05:46:21.804Z,78399.44
2022-12-11T05:48:50.618Z,78349.75
2022-12-11T05:51:17.934Z,78383.53
2022-12-11T05:53:45.873Z,78371.63
2022-12-11T05:56:14.247Z,78381.56
2022-12-11T05:58:41.613Z,78373.59
2022-12-11T06:01:10.704Z,78373.59
2022-12-11T06:03:37.635Z,78377.56
2022-12-11T06:06:05.390Z,78367.63
2022-12-11T06:08:32.513Z,78373.59
2022-12-11T06:10:59.737Z,78369.63
2022-12-11T06:13:26.270Z,78367.63
2022-12-11T06:15:53.056Z,78371.63
2022-12-11T06:18:19.588Z,78377.56
2022-12-11T06:20:46.026Z,78375.59
2022-12-11T06:23:12.498Z,78339.81
2022-12-11T06:25:39.518Z,78329.84
2022-12-11T06:28:06.948Z,78329.84
2022-12-11T06:30:37.594Z,78339.81
2022-12-11T06:33:05.820Z,78351.72
2022-12-11T06:35:35.046Z,78343.78
2022-12-11T06:38:05.084Z,78333.84
2022-12-11T06:40:31.464Z,78341.78
2022-12-11T06:42:57.839Z,78337.81
2022-12-11T06:45:24.282Z,78367.63
2022-12-11T06:47:50.694Z,78373.59
2022-12-11T06:50:17.076Z,78369.63
2022-12-11T06:52:43.418Z,78381.56
2022-12-11T06:55:10.262Z,78373.59
2022-12-11T06:57:36.968Z,78395.47
2022-12-11T07:00:04.002Z,78387.53
2022-12-11T07:02:30.445Z,78407.41
2022-12-11T07:04:56.836Z,78411.38
2022-12-11T07:07:23.241Z,78407.41
2022-12-11T07:09:49.592Z,78393.47
2022-12-11T07:12:17.435Z,78395.47
2022-12-11T07:14:43.903Z,78385.53
2022-12-11T07:17:10.313Z,78361.66
2022-12-11T07:19:36.777Z,78367.63
2022-12-11T07:22:03.164Z,78373.59
2022-12-11T07:24:29.527Z,78371.63
2022-12-11T07:26:56.040Z,78363.66
2022-12-11T07:29:22.424Z,78377.56
2022-12-11T07:31:48.906Z,78397.47
2022-12-11T07:34:15.346Z,78397.47
2022-12-11T07:36:41.761Z,78387.53
2022-12-11T07:39:09.116Z,78371.63
2022-12-11T07:41:35.591Z,78375.59
2022-12-11T07:44:02.956Z,78393.47
2022-12-11T07:46:31.341Z,78407.41
2022-12-11T07:48:57.875Z,78399.44
2022-12-11T07:51:27.849Z,78397.47
2022-12-11T07:54:04.002Z,78411.38
2022-12-11T07:56:31.478Z,78405.41
2022-12-11T07:59:05.875Z,78419.31
2022-12-11T08:01:36.425Z,78417.34
2022-12-11T08:04:05.049Z,78403.44
2022-12-11T08:06:34.963Z,78383.53
2022-12-11T08:09:03.251Z,78421.31
2022-12-11T08:11:30.062Z,78399.44
2022-12-11T08:13:56.570Z,78399.44
2022-12-11T08:16:23.308Z,78427.28
2022-12-11T08:18:49.826Z,78413.38
2022-12-11T08:21:19.627Z,78415.34
2022-12-11T08:23:46.323Z,78407.41
2022-12-11T08:26:15.055Z,78425.28
2022-12-11T08:28:41.736Z,78423.31
2022-12-11T08:31:09.878Z,78413.38
2022-12-11T08:33:37.458Z,78407.41
2022-12-11T08:36:05.679Z,78403.44
2022-12-11T08:38:32.081Z,78405.41
2022-12-11T08:40:58.488Z,78393.47
2022-12-11T08:43:25.140Z,78377.56
2022-12-11T08:45:51.601Z,78375.59
2022-12-11T08:48:18.071Z,78377.56
2022-12-11T08:50:44.732Z,78393.47
2022-12-11T08:53:11.193Z,78387.53
2022-12-11T08:55:37.587Z,78401.44
2022-12-11T08:58:04.129Z,78379.56
2022-12-11T09:00:30.663Z,78371.63
2022-12-11T09:02:57.276Z,78357.69
2022-12-11T09:05:23.735Z,78345.75
2022-12-11T09:07:50.319Z,78343.78
2022-12-11T09:10:16.761Z,78363.66
2022-12-11T09:12:43.164Z,78373.59
2022-12-11T09:15:10.418Z,78371.63
2022-12-11T09:17:37.132Z,78377.56
2022-12-11T09:20:03.963Z,78359.69
2022-12-11T09:22:33.397Z,78393.47
2022-12-11T09:24:59.837Z,78403.44
2022-12-11T09:27:26.312Z,78401.44
2022-12-11T09:29:52.759Z,78413.38
2022-12-11T09:32:20.219Z,78375.59
2022-12-11T09:34:46.653Z,78363.66
2022-12-11T09:37:13.126Z,78355.72
2022-12-11T09:39:39.557Z,78369.63
2022-12-11T09:42:18.619Z,78361.66
2022-12-11T09:44:51.570Z,78367.63
2022-12-11T09:47:21.037Z,78357.69
2022-12-11T09:49:51.144Z,78359.69
2022-12-11T09:52:19.602Z,78335.81
2022-12-11T09:54:59.116Z,78319.91
2022-12-11T09:57:43.849Z,78298.06
2022-12-11T10:00:22.480Z,78311.97
2022-12-11T10:02:58.028Z,78339.81
2022-12-11T10:05:51.226Z,78304.00
2022-12-11T10:08:35.337Z,78323.91
2022-12-11T10:11:35.276Z,78333.84
2022-12-11T10:14:07.744Z,78335.81
2022-12-11T10:16:40.492Z,78311.97
2022-12-11T10:19:17.025Z,78319.91
2022-12-11T10:21:43.836Z,78331.84
2022-12-11T10:24:48.903Z,78341.78
2022-12-11T10:27:33.574Z,78343.78
2022-12-11T10:30:36.965Z,78343.78
2022-12-11T10:33:43.950Z,78349.75
2022-12-11T10:36:13.636Z,78327.88
2022-12-11T10:38:45.467Z,78327.88
2022-12-11T10:41:15.590Z,78347.75
2022-12-11T10:43:44.362Z,78313.94
2022-12-11T10:46:18.527Z,78317.94
2022-12-11T10:48:54.108Z,78308.00
2022-12-11T10:51:35.308Z,78321.91
2022-12-11T10:54:32.224Z,78306.00
2022-12-11T10:57:00.493Z,78311.97
2022-12-11T10:59:33.004Z,78304.00
2022-12-11T11:02:00.179Z,78306.00
2022-12-11T11:04:32.561Z,78343.78
2022-12-11T11:07:19.093Z,78313.94
2022-12-11T11:09:45.980Z,78321.91
2022-12-11T11:12:26.359Z,78313.94
2022-12-11T11:15:05.564Z,78282.16
2022-12-11T11:17:35.407Z,78288.09
2022-12-11T11:20:12.003Z,78288.09
2022-12-11T11:22:46.813Z,78272.19
2022-12-11T11:25:19.783Z,78272.19
2022-12-11T11:27:52.146Z,78258.28
2022-12-11T11:30:28.431Z,78276.19
2022-12-11T11:32:58.099Z,78260.28
2022-12-11T11:35:27.533Z,78272.19
2022-12-11T11:38:03.913Z,78272.19
2022-12-11T11:40:36.860Z,78276.19
2022-12-11T11:43:30.126Z,78264.25
2022-12-11T11:46:19.855Z,78250.34
2022-12-11T11:49:00.241Z,78252.31
2022-12-11T11:51:41.728Z,78252.31
2022-12-11T11:54:31.726Z,78246.34
2022-12-11T11:57:01.397Z,78252.31
2022-12-11T11:59:39.593Z,78278.16
2022-12-11T12:02:14.847Z,78254.31
2022-12-11T12:04:42.856Z,78264.25
2022-12-11T12:07:33.157Z,78244.38
2022-12-11T12:10:04.339Z,78214.53
2022-12-11T12:12:46.002Z,78232.44
2022-12-11T12:15:40.165Z,78226.47
2022-12-11T12:18:38.489Z,78226.47
2022-12-11T12:21:29.708Z,78216.53
2022-12-11T12:24:08.212Z,78224.50
2022-12-11T12:26:44.477Z,78220.50
2022-12-11T12:29:23.611Z,78218.53
2022-12-11T12:32:09.683Z,78202.63
2022-12-11T12:35:07.159Z,78210.56
2022-12-11T12:38:21.679Z,78230.44
2022-12-11T12:41:00.339Z,78232.44
2022-12-11T12:43:44.039Z,78244.38
2022-12-11T12:46:23.777Z,78228.47
2022-12-11T12:48:52.455Z,78242.38
2022-12-11T12:51:19.212Z,78222.50
2022-12-11T12:53:56.009Z,78208.59
2022-12-11T12:56:24.580Z,78232.44
2022-12-11T12:58:50.962Z,78240.41
2022-12-11T13:01:28.899Z,78246.34
2022-12-11T13:03:59.311Z,78218.53
2022-12-11T13:06:31.908Z,78226.47
2022-12-11T13:09:09.292Z,78220.50
2022-12-11T13:11:36.306Z,78248.34
2022-12-11T13:14:07.064Z,78230.44
2022-12-11T13:16:40.327Z,78230.44
2022-12-11T13:19:28.337Z,78250.34
2022-12-11T13:22:03.053Z,78250.34
2022-12-11T13:24:32.962Z,78248.34
2022-12-11T13:27:11.225Z,78250.34
2022-12-11T13:29:42.735Z,78268.22
2022-12-11T13:32:09.066Z,78250.34
2022-12-11T13:34:44.208Z,78236.41
2022-12-11T13:37:29.755Z,78254.31
2022-12-11T13:39:56.964Z,78268.22
2022-12-11T13:42:36.056Z,78250.34
2022-12-11T13:45:03.527Z,78234.44
2022-12-11T13:47:33.388Z,78268.22
2022-12-11T13:50:34.182Z,78252.31
2022-12-11T13:53:02.631Z,78248.34
2022-12-11T13:55:34.758Z,78236.41
2022-12-11T13:58:01.900Z,78230.44
2022-12-11T14:00:32.760Z,78238.41
2022-12-11T14:03:04.629Z,78240.41
2022-12-11T14:05:31.329Z,78252.31
2022-12-11T14:08:03.593Z,78250.34
2022-12-11T14:10:32.369Z,78260.28
2022-12-11T14:13:22.008Z,78248.34
2022-12-11T14:15:48.943Z,78254.31
2022-12-11T14:18:21.826Z,78260.28
2022-12-11T14:20:58.230Z,78270.22
2022-12-11T14:23:33.387Z,78266.25
2022-12-11T14:26:02.893Z,78262.25
2022-12-11T14:28:41.434Z,78260.28
2022-12-11T14:31:08.093Z,78270.22
2022-12-11T14:33:48.805Z,78272.19
2022-12-11T14:36:18.044Z,78258.28
2022-12-11T14:38:47.883Z,78260.28
2022-12-11T14:41:22.189Z,78270.22
2022-12-11T14:43:53.200Z,78258.28
2022-12-11T14:46:30.645Z,78270.22
2022-12-11T14:49:04.605Z,78256.28
2022-12-11T14:51:39.402Z,78262.25
2022-12-11T14:54:07.438Z,78268.22
2022-12-11T14:56:34.084Z,78258.28
2022-12-11T14:59:19.143Z,78274.19
2022-12-11T15:01:45.579Z,78276.19
2022-12-11T15:04:15.266Z,78260.28
2022-12-11T15:06:47.168Z,78266.25
2022-12-11T15:09:41.430Z,78246.34
2022-12-11T15:12:18.590Z,78270.22
2022-12-11T15:14:58.204Z,78280.16
2022-12-11T15:17:27.226Z,78284.13
2022-12-11T15:19:57.329Z,78270.22
2022-12-11T15:22:28.424Z,78264.25
2022-12-11T15:24:55.155Z,78268.22
2022-12-11T15:27:35.622Z,78272.19
2022-12-11T15:30:15.146Z,78270.22
2022-12-11T15:32:41.786Z,78262.25
2022-12-11T15:35:26.249Z,78246.34
2022-12-11T15:37:57.612Z,78272.19
2022-12-11T15:40:25.094Z,78264.25
2022-12-11T15:42:52.320Z,78262.25
2022-12-11T15:45:21.597Z,78272.19
2022-12-11T15:47:49.493Z,78252.31
2022-12-11T15:50:21.745Z,78258.28
2022-12-11T15:52:49.495Z,78262.25
2022-12-11T15:55:16.948Z,78284.13
2022-12-11T15:57:46.814Z,78284.13
2022-12-11T16:00:15.705Z,78292.09
2022-12-11T16:02:42.415Z,78264.25
2022-12-11T16:05:09.076Z,78262.25
2022-12-11T16:07:35.759Z,78272.19
2022-12-11T16:10:02.369Z,78276.19
2022-12-11T16:12:28.785Z,78284.13
2022-12-11T16:14:55.166Z,78282.16
2022-12-11T16:17:21.599Z,78288.09
2022-12-11T16:19:48.182Z,78292.09
2022-12-11T16:22:14.724Z,78296.06
2022-12-11T16:24:41.578Z,78286.13
2022-12-11T16:27:11.994Z,78298.06
2022-12-11T16:29:40.842Z,78288.09
2022-12-11T16:32:08.366Z,78278.16
2022-12-11T16:34:36.490Z,78294.06
2022-12-11T16:37:04.585Z,78270.22
2022-12-11T16:39:31.016Z,78276.19
2022-12-11T16:41:57.535Z,78278.16
2022-12-11T16:44:25.944Z,78276.19
2022-12-11T16:46:53.785Z,78296.06
2022-12-11T16:49:22.256Z,78270.22
2022-12-11T16:51:49.498Z,78270.22
2022-12-11T16:54:16.533Z,78286.13
2022-12-11T16:56:43.053Z,78282.16
2022-12-11T16:59:09.558Z,78274.19
2022-12-11T17:01:36.000Z,78286.13
2022-12-11T17:04:02.467Z,78264.25
2022-12-11T17:06:29.763Z,78282.16
2022-12-11T17:08:56.213Z,78274.19
2022-12-11T17:11:24.902Z,78276.19
2022-12-11T17:13:56.217Z,78270.22
2022-12-11T17:16:25.993Z,78300.03
2022-12-11T17:18:53.282Z,78274.19
2022-12-11T17:21:20.946Z,78272.19
2022-12-11T17:23:47.357Z,78272.19
2022-12-11T17:26:14.667Z,78262.25
2022-12-11T17:28:41.065Z,78250.34
2022-12-11T17:31:10.190Z,78260.28
2022-12-11T17:33:36.640Z,78262.25
2022-12-11T17:36:04.919Z,78268.22
2022-12-11T17:38:31.479Z,78260.28
2022-12-11T17:40:58.287Z,78232.44
2022-12-11T17:43:25.210Z,78254.31
2022-12-11T17:45:55.284Z,78256.28
2022-12-11T17:48:24.640Z,78258.28
2022-12-11T17:50:52.559Z,78264.25
2022-12-11T17:53:20.556Z,78250.34
2022-12-11T17:55:48.268Z,78250.34
2022-12-11T17:58:17.290Z,78254.31
2022-12-11T18:00:46.446Z,78266.25
2022-12-11T18:03:13.406Z,78258.28
2022-12-11T18:05:45.603Z,78262.25
2022-12-11T18:08:13.818Z,78260.28
2022-12-11T18:10:40.579Z,78258.28
2022-12-11T18:13:07.218Z,78256.28
2022-12-11T18:15:33.714Z,78254.31
2022-12-11T18:18:00.202Z,78232.44
2022-12-11T18:20:26.934Z,78252.31
2022-12-11T18:22:54.803Z,78274.19
2022-12-11T18:25:21.381Z,78266.25
2022-12-11T18:27:48.076Z,78260.28
2022-12-11T18:30:15.055Z,78280.16
2022-12-11T18:32:42.731Z,78266.25
2022-12-11T18:35:10.484Z,78270.22
2022-12-11T18:37:38.169Z,78272.19
2022-12-11T18:40:05.867Z,78274.19
2022-12-11T18:42:33.745Z,78268.22
2022-12-11T18:45:00.844Z,78270.22
2022-12-11T18:47:27.469Z,78274.19
2022-12-11T18:49:54.000Z,78270.22
2022-12-11T18:52:20.386Z,78278.16
2022-12-11T18:54:47.425Z,78278.16
2022-12-11T18:57:13.795Z,78260.28
2022-12-11T18:59:40.178Z,78274.19
2022-12-11T19:02:06.765Z,78258.28
2022-12-11T19:04:33.242Z,78252.31
2022-12-11T19:07:00.756Z,78262.25
2022-12-11T19:09:27.183Z,78244.38
2022-12-11T19:11:53.640Z,78244.38
2022-12-11T19:14:20.075Z,78250.34
2022-12-11T19:16:46.778Z,78242.38
2022-12-11T19:19:16.660Z,78252.31
2022-12-11T19:21:44.246Z,78252.31
2022-12-11T19:24:16.028Z,78246.34
2022-12-11T19:26:43.219Z,78230.44
2022-12-11T19:29:20.876Z,78200.63
2022-12-11T19:31:47.879Z,78194.66
2022-12-11T19:34:15.070Z,78184.72
2022-12-11T19:36:41.622Z,78214.53
2022-12-11T19:39:12.952Z,78212.56
2022-12-11T19:41:40.754Z,78192.69
2022-12-11T19:44:07.841Z,78198.66
2022-12-11T19:46:34.417Z,78184.72
2022-12-11T19:49:01.402Z,78232.44
2022-12-11T19:51:40.145Z,78246.34
2022-12-11T19:54:08.513Z,78256.28
2022-12-11T19:56:35.730Z,78248.34
2022-12-11T19:59:04.150Z,78248.34
2022-12-11T20:01:32.468Z,78240.41
2022-12-11T20:04:01.210Z,78230.44
2022-12-11T20:06:29.681Z,78242.38
2022-12-11T20:08:56.154Z,78240.41
2022-12-11T20:11:23.700Z,78230.44
2022-12-11T20:13:50.977Z,78240.41
2022-12-11T20:16:28.877Z,78206.59
2022-12-11T20:19:05.768Z,78208.59
2022-12-11T20:21:32.172Z,78192.69
2022-12-11T20:23:58.809Z,78214.53
2022-12-11T20:26:25.717Z,78198.66
2022-12-11T20:28:53.385Z,78212.56
2022-12-11T20:31:24.227Z,78224.50
2022-12-11T20:33:52.360Z,78198.66
2022-12-11T20:36:21.608Z,78196.66
2022-12-11T20:38:48.204Z,78216.53
2022-12-11T20:41:17.571Z,78214.53
2022-12-11T20:43:44.201Z,78220.50
2022-12-11T20:46:13.641Z,78204.59
2022-12-11T20:48:42.596Z,78212.56
2022-12-11T20:51:10.989Z,78206.59
2022-12-11T20:53:38.382Z,78216.53
2022-12-11T20:56:17.605Z,78200.63
2022-12-11T20:58:45.021Z,78206.59
2022-12-11T21:01:16.328Z,78208.59
2022-12-11T21:03:42.916Z,78210.56
2022-12-11T21:06:17.698Z,78208.59
2022-12-11T21:08:44.102Z,78204.59
2022-12-11T21:11:10.585Z,78200.63
2022-12-11T21:13:37.279Z,78206.59
2022-12-11T21:16:06.115Z,78204.59
2022-12-11T21:18:32.932Z,78206.59
2022-12-11T21:20:59.621Z,78212.56
2022-12-11T21:23:26.334Z,78196.66
2022-12-11T21:25:53.186Z,78210.56
2022-12-11T21:28:20.375Z,78200.63
2022-12-11T21:30:47.163Z,78200.63
2022-12-11T21:33:13.747Z,78184.72
2022-12-11T21:35:40.143Z,78196.66
2022-12-11T21:38:06.566Z,78202.63
2022-12-11T21:40:33.003Z,78204.59
2022-12-11T21:42:59.434Z,78182.75
2022-12-11T21:48:15.029Z,78184.72
2022-12-11T21:50:42.541Z,78188.69
2022-12-11T21:53:09.256Z,78196.66
2022-12-11T21:55:39.765Z,78194.66
2022-12-11T21:58:06.117Z,78208.59
2022-12-11T22:00:32.510Z,78212.56
2022-12-11T22:02:58.883Z,78224.50
2022-12-11T22:05:25.268Z,78210.56
2022-12-11T22:07:51.690Z,78196.66
2022-12-11T22:10:18.258Z,78196.66
2022-12-11T22:12:44.633Z,78226.47
2022-12-11T22:15:11.789Z,78204.59
2022-12-11T22:17:38.449Z,78208.59
2022-12-11T22:20:06.045Z,78198.66
2022-12-11T22:22:32.587Z,78210.56
2022-12-11T22:24:58.983Z,78206.59
2022-12-11T22:27:25.515Z,78206.59
2022-12-11T22:29:52.071Z,78200.63
2022-12-11T22:32:18.425Z,78208.59
2022-12-11T22:34:44.893Z,78218.53
2022-12-11T22:37:11.276Z,78224.50
2022-12-11T22:39:37.684Z,78224.50
2022-12-11T22:42:04.211Z,78208.59
2022-12-11T22:44:30.636Z,78206.59
2022-12-11T22:46:57.432Z,78216.53
2022-12-11T22:49:23.803Z,78188.69
2022-12-11T22:51:50.352Z,78202.63
2022-12-11T22:54:16.750Z,78200.63
2022-12-11T22:56:43.182Z,78200.63
2022-12-11T22:59:09.597Z,78196.66
2022-12-11T23:01:36.015Z,78208.59
2022-12-11T23:04:02.498Z,78212.56
2022-12-11T23:06:28.872Z,78194.66
2022-12-11T23:08:58.290Z,78208.59
2022-12-11T23:11:35.060Z,78206.59
2022-12-11T23:14:02.568Z,78210.56
2022-12-11T23:16:29.211Z,78214.53
2022-12-11T23:18:57.407Z,78202.63
2022-12-11T23:21:25.483Z,78222.50
2022-12-11T23:23:52.608Z,78218.53
2022-12-11T23:26:19.683Z,78220.50
2022-12-11T23:28:47.476Z,78202.63
2022-12-11T23:31:15.082Z,78198.66
2022-12-11T23:33:42.018Z,78196.66
2022-12-11T23:36:09.225Z,78204.59
2022-12-11T23:38:35.840Z,78204.59
2022-12-11T23:41:04.314Z,78208.59
2022-12-11T23:43:31.199Z,78200.63
2022-12-11T23:45:57.791Z,78214.53
2022-12-11T23:48:24.486Z,78220.50
2022-12-11T23:50:51.350Z,78196.66
2022-12-11T23:53:17.777Z,78210.56
2022-12-11T23:55:45.474Z,78216.53
2022-12-11T23:58:12.628Z,78232.44
